ADDS METAR Data INFO
IDs: Format: Raw Decoded Include TAF

Data at: 2028 UTC 16 Dec 2017

METAR for:TNCM (St Maarten Intl, --, MN)
Text:TNCM 162000Z 06013G23KT 030V100 9999 FEW020 28/21 Q1016 A3001 NOSIG
Temperature: 28.0°C ( 82°F)
Dewpoint: 21.0°C ( 70°F) [RH = 66%]
Pressure (altimeter):30.00 inches Hg (1016.0 mb)
Winds:from the ENE (60 degrees) at 15 MPH (13 knots; 6.7 m/s) gusting to 26 MPH (23 knots; 11.8 m/s)
Visibility:6 or more sm (10+ km)
Ceiling:at least 12,000 feet AGL
Clouds: few clouds at 2000 feet AGL